sensor_id;sensor_type;location;lat;lon;timestamp;temperature;humidity
38910;DHT22;24676;51.360;12.354;2023-03-11T00:01:28;1.50;99.90
38910;DHT22;24676;51.360;12.354;2023-03-11T00:04:12;1.50;99.90
38910;DHT22;24676;51.360;12.354;2023-03-11T00:06:56;1.50;99.90
38910;DHT22;24676;51.360;12.354;2023-03-11T00:09:41;1.50;99.90
38910;DHT22;24676;51.360;12.354;2023-03-11T00:12:25;1.40;99.90
38910;DHT22;24676;51.360;12.354;2023-03-11T00:15:10;1.40;99.90
38910;DHT22;24676;51.360;12.354;2023-03-11T00:17:54;1.30;99.90
38910;DHT22;24676;51.360;12.354;2023-03-11T00:20:42;1.30;99.90
38910;DHT22;24676;51.360;12.354;2023-03-11T00:23:27;1.30;99.90
38910;DHT22;24676;51.360;12.354;2023-03-11T00:26:11;1.20;99.90
38910;DHT22;24676;51.360;12.354;2023-03-11T00:28:56;1.20;99.90
38910;DHT22;24676;51.360;12.354;2023-03-11T00:31:40;1.20;99.90
38910;DHT22;24676;51.360;12.354;2023-03-11T00:37:13;1.10;99.90
38910;DHT22;24676;51.360;12.354;2023-03-11T00:39:58;1.10;99.90
38910;DHT22;24676;51.360;12.354;2023-03-11T00:42:43;1.10;99.90
38910;DHT22;24676;51.360;12.354;2023-03-11T00:45:28;1.10;99.90
38910;DHT22;24676;51.360;12.354;2023-03-11T00:48:13;1.10;99.90
38910;DHT22;24676;51.360;12.354;2023-03-11T00:50:58;1.00;99.90
38910;DHT22;24676;51.360;12.354;2023-03-11T00:53:42;1.00;99.90
38910;DHT22;24676;51.360;12.354;2023-03-11T00:56:26;1.00;99.90
38910;DHT22;24676;51.360;12.354;2023-03-11T00:59:10;0.90;99.90
38910;DHT22;24676;51.360;12.354;2023-03-11T01:01:55;0.90;99.90
38910;DHT22;24676;51.360;12.354;2023-03-11T01:04:39;0.90;99.90
38910;DHT22;24676;51.360;12.354;2023-03-11T01:07:23;0.90;99.90
38910;DHT22;24676;51.360;12.354;2023-03-11T01:10:09;0.80;99.90
38910;DHT22;24676;51.360;12.354;2023-03-11T01:12:54;0.90;99.90
38910;DHT22;24676;51.360;12.354;2023-03-11T01:15:38;0.90;99.90
38910;DHT22;24676;51.360;12.354;2023-03-11T01:18:23;0.80;99.90
38910;DHT22;24676;51.360;12.354;2023-03-11T01:21:07;0.90;99.90
38910;DHT22;24676;51.360;12.354;2023-03-11T01:23:51;0.90;99.90
38910;DHT22;24676;51.360;12.354;2023-03-11T01:26:35;0.90;99.90
38910;DHT22;24676;51.360;12.354;2023-03-11T01:29:20;0.80;99.90
38910;DHT22;24676;51.360;12.354;2023-03-11T01:32:05;0.90;99.90
38910;DHT22;24676;51.360;12.354;2023-03-11T01:34:49;0.80;99.90
38910;DHT22;24676;51.360;12.354;2023-03-11T01:37:34;0.80;99.90
38910;DHT22;24676;51.360;12.354;2023-03-11T01:40:43;0.80;99.90
38910;DHT22;24676;51.360;12.354;2023-03-11T01:46:32;0.70;99.90
38910;DHT22;24676;51.360;12.354;2023-03-11T01:49:17;0.70;99.90
38910;DHT22;24676;51.360;12.354;2023-03-11T01:52:05;0.70;99.90
38910;DHT22;24676;51.360;12.354;2023-03-11T01:54:51;0.70;99.90
38910;DHT22;24676;51.360;12.354;2023-03-11T01:57:37;0.70;99.90
38910;DHT22;24676;51.360;12.354;2023-03-11T02:00:22;0.70;99.90
38910;DHT22;24676;51.360;12.354;2023-03-11T02:03:10;0.70;99.90
38910;DHT22;24676;51.360;12.354;2023-03-11T02:05:56;0.80;99.90
38910;DHT22;24676;51.360;12.354;2023-03-11T02:08:43;0.80;99.90
38910;DHT22;24676;51.360;12.354;2023-03-11T02:11:29;0.70;99.90
38910;DHT22;24676;51.360;12.354;2023-03-11T02:14:13;0.70;99.90
38910;DHT22;24676;51.360;12.354;2023-03-11T02:16:58;0.70;99.90
38910;DHT22;24676;51.360;12.354;2023-03-11T02:23:02;0.70;99.90
38910;DHT22;24676;51.360;12.354;2023-03-11T02:28:45;0.70;99.90
38910;DHT22;24676;51.360;12.354;2023-03-11T02:31:31;0.70;99.90
38910;DHT22;24676;51.360;12.354;2023-03-11T02:34:24;0.70;99.90
38910;DHT22;24676;51.360;12.354;2023-03-11T02:37:11;0.70;99.90
38910;DHT22;24676;51.360;12.354;2023-03-11T02:43:07;0.70;99.90
38910;DHT22;24676;51.360;12.354;2023-03-11T02:45:52;0.70;99.90
38910;DHT22;24676;51.360;12.354;2023-03-11T02:48:36;0.60;99.90
38910;DHT22;24676;51.360;12.354;2023-03-11T02:51:21;0.60;99.90
38910;DHT22;24676;51.360;12.354;2023-03-11T02:54:05;0.60;99.90
38910;DHT22;24676;51.360;12.354;2023-03-11T02:56:49;0.70;99.90
38910;DHT22;24676;51.360;12.354;2023-03-11T02:59:33;0.60;99.90
38910;DHT22;24676;51.360;12.354;2023-03-11T03:02:17;0.60;99.90
38910;DHT22;24676;51.360;12.354;2023-03-11T03:05:01;0.60;99.90
38910;DHT22;24676;51.360;12.354;2023-03-11T03:07:46;0.60;99.90
38910;DHT22;24676;51.360;12.354;2023-03-11T03:10:31;0.60;99.90
38910;DHT22;24676;51.360;12.354;2023-03-11T03:13:15;0.70;99.90
38910;DHT22;24676;51.360;12.354;2023-03-11T03:15:59;0.70;99.90
38910;DHT22;24676;51.360;12.354;2023-03-11T03:18:43;0.70;99.90
38910;DHT22;24676;51.360;12.354;2023-03-11T03:21:28;0.70;99.90
38910;DHT22;24676;51.360;12.354;2023-03-11T03:24:12;0.60;99.90
38910;DHT22;24676;51.360;12.354;2023-03-11T03:26:56;0.70;99.90
38910;DHT22;24676;51.360;12.354;2023-03-11T03:29:40;0.60;99.90
38910;DHT22;24676;51.360;12.354;2023-03-11T03:32:24;0.70;99.90
38910;DHT22;24676;51.360;12.354;2023-03-11T03:35:09;0.60;99.90
38910;DHT22;24676;51.360;12.354;2023-03-11T03:37:53;0.60;99.90
38910;DHT22;24676;51.360;12.354;2023-03-11T03:40:38;0.70;99.90
38910;DHT22;24676;51.360;12.354;2023-03-11T03:43:22;0.70;99.90
38910;DHT22;24676;51.360;12.354;2023-03-11T03:46:06;0.70;99.90
38910;DHT22;24676;51.360;12.354;2023-03-11T03:48:51;0.70;99.90
38910;DHT22;24676;51.360;12.354;2023-03-11T03:51:35;0.70;99.90
38910;DHT22;24676;51.360;12.354;2023-03-11T03:54:19;0.70;99.90
38910;DHT22;24676;51.360;12.354;2023-03-11T03:57:04;0.70;99.90
38910;DHT22;24676;51.360;12.354;2023-03-11T03:59:48;0.70;99.90
38910;DHT22;24676;51.360;12.354;2023-03-11T04:02:32;0.70;99.90
38910;DHT22;24676;51.360;12.354;2023-03-11T04:05:16;0.70;99.90
38910;DHT22;24676;51.360;12.354;2023-03-11T04:08:02;0.70;99.90
38910;DHT22;24676;51.360;12.354;2023-03-11T04:10:56;0.70;99.90
38910;DHT22;24676;51.360;12.354;2023-03-11T04:13:40;0.70;99.90
38910;DHT22;24676;51.360;12.354;2023-03-11T04:16:27;0.60;99.90
38910;DHT22;24676;51.360;12.354;2023-03-11T04:19:11;0.60;99.90
38910;DHT22;24676;51.360;12.354;2023-03-11T04:21:56;0.70;99.90
38910;DHT22;24676;51.360;12.354;2023-03-11T04:24:40;0.60;99.90
38910;DHT22;24676;51.360;12.354;2023-03-11T04:27:24;0.60;99.90
38910;DHT22;24676;51.360;12.354;2023-03-11T04:30:09;0.70;99.90
38910;DHT22;24676;51.360;12.354;2023-03-11T04:32:53;0.60;99.90
38910;DHT22;24676;51.360;12.354;2023-03-11T04:35:37;0.70;99.90
38910;DHT22;24676;51.360;12.354;2023-03-11T04:38:22;0.60;99.90
38910;DHT22;24676;51.360;12.354;2023-03-11T04:41:06;0.60;99.90
38910;DHT22;24676;51.360;12.354;2023-03-11T04:43:50;0.60;99.90
38910;DHT22;24676;51.360;12.354;2023-03-11T04:46:34;0.60;99.90
38910;DHT22;24676;51.360;12.354;2023-03-11T04:49:18;0.60;99.90
38910;DHT22;24676;51.360;12.354;2023-03-11T04:52:03;0.60;99.90
38910;DHT22;24676;51.360;12.354;2023-03-11T04:54:47;0.60;99.90
38910;DHT22;24676;51.360;12.354;2023-03-11T04:57:31;0.60;99.90
38910;DHT22;24676;51.360;12.354;2023-03-11T05:00:16;0.60;99.90
38910;DHT22;24676;51.360;12.354;2023-03-11T05:03:05;0.60;99.90
38910;DHT22;24676;51.360;12.354;2023-03-11T05:05:49;0.60;99.90
38910;DHT22;24676;51.360;12.354;2023-03-11T05:08:33;0.60;99.90
38910;DHT22;24676;51.360;12.354;2023-03-11T05:11:17;0.60;99.90
38910;DHT22;24676;51.360;12.354;2023-03-11T05:14:02;0.60;99.90
38910;DHT22;24676;51.360;12.354;2023-03-11T05:16:46;0.60;99.90
38910;DHT22;24676;51.360;12.354;2023-03-11T05:19:30;0.60;99.90
38910;DHT22;24676;51.360;12.354;2023-03-11T05:22:14;0.60;99.90
38910;DHT22;24676;51.360;12.354;2023-03-11T05:24:58;0.60;99.90
38910;DHT22;24676;51.360;12.354;2023-03-11T05:27:42;0.60;99.90
38910;DHT22;24676;51.360;12.354;2023-03-11T05:30:27;0.60;99.90
38910;DHT22;24676;51.360;12.354;2023-03-11T05:33:11;0.60;99.90
38910;DHT22;24676;51.360;12.354;2023-03-11T05:35:59;0.60;99.90
38910;DHT22;24676;51.360;12.354;2023-03-11T05:38:46;0.60;99.90
38910;DHT22;24676;51.360;12.354;2023-03-11T05:41:30;0.60;99.90
38910;DHT22;24676;51.360;12.354;2023-03-11T05:44:14;0.60;99.90
38910;DHT22;24676;51.360;12.354;2023-03-11T05:46:59;0.60;99.90
38910;DHT22;24676;51.360;12.354;2023-03-11T05:49:45;0.60;99.90
38910;DHT22;24676;51.360;12.354;2023-03-11T05:52:30;0.60;99.90
38910;DHT22;24676;51.360;12.354;2023-03-11T05:55:16;0.60;99.90
38910;DHT22;24676;51.360;12.354;2023-03-11T05:58:00;0.60;99.90
38910;DHT22;24676;51.360;12.354;2023-03-11T06:00:44;0.60;99.90
38910;DHT22;24676;51.360;12.354;2023-03-11T06:03:28;0.70;99.90
38910;DHT22;24676;51.360;12.354;2023-03-11T06:06:12;0.80;99.90
38910;DHT22;24676;51.360;12.354;2023-03-11T06:08:56;0.80;99.90
38910;DHT22;24676;51.360;12.354;2023-03-11T06:11:41;0.90;99.90
38910;DHT22;24676;51.360;12.354;2023-03-11T06:14:25;1.00;99.90
38910;DHT22;24676;51.360;12.354;2023-03-11T06:17:11;1.00;99.90
38910;DHT22;24676;51.360;12.354;2023-03-11T06:19:56;1.10;99.90
38910;DHT22;24676;51.360;12.354;2023-03-11T06:22:40;1.10;99.90
38910;DHT22;24676;51.360;12.354;2023-03-11T06:25:27;1.10;99.90
38910;DHT22;24676;51.360;12.354;2023-03-11T06:28:11;1.00;99.90
38910;DHT22;24676;51.360;12.354;2023-03-11T06:30:56;1.00;99.90
38910;DHT22;24676;51.360;12.354;2023-03-11T06:33:41;1.10;99.90
38910;DHT22;24676;51.360;12.354;2023-03-11T06:36:26;1.10;99.90
38910;DHT22;24676;51.360;12.354;2023-03-11T06:39:13;1.10;99.90
38910;DHT22;24676;51.360;12.354;2023-03-11T06:41:58;1.10;99.90
38910;DHT22;24676;51.360;12.354;2023-03-11T06:44:42;1.10;99.90
38910;DHT22;24676;51.360;12.354;2023-03-11T06:47:26;1.10;99.90
38910;DHT22;24676;51.360;12.354;2023-03-11T06:50:11;1.10;99.90
38910;DHT22;24676;51.360;12.354;2023-03-11T06:52:55;1.00;99.90
38910;DHT22;24676;51.360;12.354;2023-03-11T06:55:40;1.00;99.90
38910;DHT22;24676;51.360;12.354;2023-03-11T06:58:24;1.00;99.90
38910;DHT22;24676;51.360;12.354;2023-03-11T07:01:12;1.00;99.90
38910;DHT22;24676;51.360;12.354;2023-03-11T07:03:57;1.00;99.90
38910;DHT22;24676;51.360;12.354;2023-03-11T07:06:41;1.00;99.90
38910;DHT22;24676;51.360;12.354;2023-03-11T07:09:26;1.00;99.90
38910;DHT22;24676;51.360;12.354;2023-03-11T07:12:12;1.00;99.90
38910;DHT22;24676;51.360;12.354;2023-03-11T07:14:58;0.90;99.90
38910;DHT22;24676;51.360;12.354;2023-03-11T07:17:43;0.90;99.90
38910;DHT22;24676;51.360;12.354;2023-03-11T07:20:27;0.90;99.90
38910;DHT22;24676;51.360;12.354;2023-03-11T07:23:11;1.00;99.90
38910;DHT22;24676;51.360;12.354;2023-03-11T07:25:55;1.20;99.90
38910;DHT22;24676;51.360;12.354;2023-03-11T07:28:40;1.30;99.90
38910;DHT22;24676;51.360;12.354;2023-03-11T07:31:26;1.30;99.90
38910;DHT22;24676;51.360;12.354;2023-03-11T07:34:11;1.30;99.90
38910;DHT22;24676;51.360;12.354;2023-03-11T07:36:55;1.30;99.90
38910;DHT22;24676;51.360;12.354;2023-03-11T07:39:40;1.40;99.90
38910;DHT22;24676;51.360;12.354;2023-03-11T07:42:24;1.50;99.90
38910;DHT22;24676;51.360;12.354;2023-03-11T07:45:09;1.70;99.90
38910;DHT22;24676;51.360;12.354;2023-03-11T07:47:53;1.80;99.90
38910;DHT22;24676;51.360;12.354;2023-03-11T07:50:37;1.90;99.90
38910;DHT22;24676;51.360;12.354;2023-03-11T07:53:21;2.00;99.90
38910;DHT22;24676;51.360;12.354;2023-03-11T07:56:06;2.10;99.90
38910;DHT22;24676;51.360;12.354;2023-03-11T07:58:50;2.10;99.90
38910;DHT22;24676;51.360;12.354;2023-03-11T08:01:35;2.10;99.90
38910;DHT22;24676;51.360;12.354;2023-03-11T08:04:19;2.00;99.90
38910;DHT22;24676;51.360;12.354;2023-03-11T08:07:03;2.00;99.90
38910;DHT22;24676;51.360;12.354;2023-03-11T08:09:48;2.00;99.90
38910;DHT22;24676;51.360;12.354;2023-03-11T08:12:32;2.00;99.90
38910;DHT22;24676;51.360;12.354;2023-03-11T08:15:16;2.00;99.90
38910;DHT22;24676;51.360;12.354;2023-03-11T08:18:00;2.10;99.90
38910;DHT22;24676;51.360;12.354;2023-03-11T08:20:45;2.00;99.90
38910;DHT22;24676;51.360;12.354;2023-03-11T08:23:29;2.00;99.90
38910;DHT22;24676;51.360;12.354;2023-03-11T08:26:16;1.90;99.90
38910;DHT22;24676;51.360;12.354;2023-03-11T08:29:01;2.00;99.90
38910;DHT22;24676;51.360;12.354;2023-03-11T08:31:45;1.90;99.90
38910;DHT22;24676;51.360;12.354;2023-03-11T08:34:29;1.80;99.90
38910;DHT22;24676;51.360;12.354;2023-03-11T08:37:13;1.80;99.90
38910;DHT22;24676;51.360;12.354;2023-03-11T08:39:57;1.80;99.90
38910;DHT22;24676;51.360;12.354;2023-03-11T08:42:42;1.80;99.90
38910;DHT22;24676;51.360;12.354;2023-03-11T08:45:26;1.80;99.90
38910;DHT22;24676;51.360;12.354;2023-03-11T08:48:11;1.70;99.90
38910;DHT22;24676;51.360;12.354;2023-03-11T08:50:55;1.70;99.90
38910;DHT22;24676;51.360;12.354;2023-03-11T08:53:40;1.80;99.90
38910;DHT22;24676;51.360;12.354;2023-03-11T08:56:24;1.80;99.90
38910;DHT22;24676;51.360;12.354;2023-03-11T08:59:09;1.80;99.90
38910;DHT22;24676;51.360;12.354;2023-03-11T09:01:53;1.80;99.90
38910;DHT22;24676;51.360;12.354;2023-03-11T09:04:38;1.90;99.90
38910;DHT22;24676;51.360;12.354;2023-03-11T09:07:22;1.90;99.90
38910;DHT22;24676;51.360;12.354;2023-03-11T09:10:07;1.90;99.90
38910;DHT22;24676;51.360;12.354;2023-03-11T09:12:51;2.00;99.90
38910;DHT22;24676;51.360;12.354;2023-03-11T09:15:35;2.00;99.90
38910;DHT22;24676;51.360;12.354;2023-03-11T09:18:22;2.10;99.90
38910;DHT22;24676;51.360;12.354;2023-03-11T09:21:06;2.20;99.90
38910;DHT22;24676;51.360;12.354;2023-03-11T09:23:50;2.30;99.90
38910;DHT22;24676;51.360;12.354;2023-03-11T09:26:34;2.50;99.90
38910;DHT22;24676;51.360;12.354;2023-03-11T09:29:19;2.60;99.90
38910;DHT22;24676;51.360;12.354;2023-03-11T09:32:03;2.80;99.90
38910;DHT22;24676;51.360;12.354;2023-03-11T09:34:47;3.00;99.90
38910;DHT22;24676;51.360;12.354;2023-03-11T09:37:32;3.00;99.90
38910;DHT22;24676;51.360;12.354;2023-03-11T09:40:17;3.20;99.90
38910;DHT22;24676;51.360;12.354;2023-03-11T09:43:12;3.30;99.90
38910;DHT22;24676;51.360;12.354;2023-03-11T09:51:56;3.40;99.90
38910;DHT22;24676;51.360;12.354;2023-03-11T09:54:46;3.40;99.90
38910;DHT22;24676;51.360;12.354;2023-03-11T09:57:31;3.40;99.90
38910;DHT22;24676;51.360;12.354;2023-03-11T10:00:16;3.40;99.90
38910;DHT22;24676;51.360;12.354;2023-03-11T10:03:02;3.40;99.90
38910;DHT22;24676;51.360;12.354;2023-03-11T10:05:49;3.60;99.90
38910;DHT22;24676;51.360;12.354;2023-03-11T10:08:41;3.80;99.90
38910;DHT22;24676;51.360;12.354;2023-03-11T10:11:40;3.90;99.90
38910;DHT22;24676;51.360;12.354;2023-03-11T10:20:57;3.70;99.90
38910;DHT22;24676;51.360;12.354;2023-03-11T10:26:50;3.90;99.90
38910;DHT22;24676;51.360;12.354;2023-03-11T10:33:00;3.90;99.90
38910;DHT22;24676;51.360;12.354;2023-03-11T10:35:51;4.00;99.90
38910;DHT22;24676;51.360;12.354;2023-03-11T10:38:39;3.80;99.90
38910;DHT22;24676;51.360;12.354;2023-03-11T10:44:24;3.40;99.90
38910;DHT22;24676;51.360;12.354;2023-03-11T10:47:22;3.40;99.90
38910;DHT22;24676;51.360;12.354;2023-03-11T10:50:10;3.40;99.90
38910;DHT22;24676;51.360;12.354;2023-03-11T10:53:08;3.40;99.90
38910;DHT22;24676;51.360;12.354;2023-03-11T10:55:56;3.40;99.90
38910;DHT22;24676;51.360;12.354;2023-03-11T10:58:47;3.50;99.90
38910;DHT22;24676;51.360;12.354;2023-03-11T11:01:32;3.60;99.90
38910;DHT22;24676;51.360;12.354;2023-03-11T11:04:38;3.80;99.90
38910;DHT22;24676;51.360;12.354;2023-03-11T11:07:32;3.90;99.90
38910;DHT22;24676;51.360;12.354;2023-03-11T11:16:37;3.80;99.90
38910;DHT22;24676;51.360;12.354;2023-03-11T11:19:07;3.90;99.90
38910;DHT22;24676;51.360;12.354;2023-03-11T11:21:52;4.00;99.90
38910;DHT22;24676;51.360;12.354;2023-03-11T11:24:42;4.00;99.90
38910;DHT22;24676;51.360;12.354;2023-03-11T11:27:27;3.90;99.90
38910;DHT22;24676;51.360;12.354;2023-03-11T11:30:15;3.80;99.90
38910;DHT22;24676;51.360;12.354;2023-03-11T11:33:26;3.70;99.90
38910;DHT22;24676;51.360;12.354;2023-03-11T11:36:13;3.40;99.90
38910;DHT22;24676;51.360;12.354;2023-03-11T11:38:58;3.20;99.90
38910;DHT22;24676;51.360;12.354;2023-03-11T11:41:43;3.10;99.90
38910;DHT22;24676;51.360;12.354;2023-03-11T11:44:33;3.30;99.90
38910;DHT22;24676;51.360;12.354;2023-03-11T11:47:51;3.50;99.90
38910;DHT22;24676;51.360;12.354;2023-03-11T11:50:50;3.60;99.90
38910;DHT22;24676;51.360;12.354;2023-03-11T11:53:43;3.80;99.90
38910;DHT22;24676;51.360;12.354;2023-03-11T11:56:29;3.70;99.90
38910;DHT22;24676;51.360;12.354;2023-03-11T11:59:18;3.70;99.90
38910;DHT22;24676;51.360;12.354;2023-03-11T12:08:35;3.20;99.90
38910;DHT22;24676;51.360;12.354;2023-03-11T12:11:27;3.30;99.90
38910;DHT22;24676;51.360;12.354;2023-03-11T12:14:42;3.50;99.90
38910;DHT22;24676;51.360;12.354;2023-03-11T12:17:30;4.00;99.90
38910;DHT22;24676;51.360;12.354;2023-03-11T12:20:31;4.30;99.90
38910;DHT22;24676;51.360;12.354;2023-03-11T12:26:21;4.60;99.90
38910;DHT22;24676;51.360;12.354;2023-03-11T12:29:22;4.40;99.90
38910;DHT22;24676;51.360;12.354;2023-03-11T12:32:21;4.10;99.90
38910;DHT22;24676;51.360;12.354;2023-03-11T12:35:25;3.90;99.90
38910;DHT22;24676;51.360;12.354;2023-03-11T12:38:20;4.00;99.90
38910;DHT22;24676;51.360;12.354;2023-03-11T12:44:01;4.20;99.90
38910;DHT22;24676;51.360;12.354;2023-03-11T12:49:47;4.20;99.90
38910;DHT22;24676;51.360;12.354;2023-03-11T12:52:31;4.10;99.90
38910;DHT22;24676;51.360;12.354;2023-03-11T12:55:34;4.10;99.90
38910;DHT22;24676;51.360;12.354;2023-03-11T12:58:44;4.00;99.90
38910;DHT22;24676;51.360;12.354;2023-03-11T13:01:55;3.80;99.90
38910;DHT22;24676;51.360;12.354;2023-03-11T13:04:45;3.60;99.90
38910;DHT22;24676;51.360;12.354;2023-03-11T13:07:39;3.50;99.90
38910;DHT22;24676;51.360;12.354;2023-03-11T13:10:34;3.60;99.90
38910;DHT22;24676;51.360;12.354;2023-03-11T13:23:21;4.20;99.90
38910;DHT22;24676;51.360;12.354;2023-03-11T13:32:04;4.20;99.90
38910;DHT22;24676;51.360;12.354;2023-03-11T13:40:59;3.90;99.90
38910;DHT22;24676;51.360;12.354;2023-03-11T13:43:46;4.00;99.90
38910;DHT22;24676;51.360;12.354;2023-03-11T13:46:36;4.20;99.90
38910;DHT22;24676;51.360;12.354;2023-03-11T13:52:37;4.60;99.90
38910;DHT22;24676;51.360;12.354;2023-03-11T13:55:25;4.80;99.90
38910;DHT22;24676;51.360;12.354;2023-03-11T13:58:20;4.90;99.90
38910;DHT22;24676;51.360;12.354;2023-03-11T14:01:10;5.10;99.90
38910;DHT22;24676;51.360;12.354;2023-03-11T14:03:57;5.30;99.90
38910;DHT22;24676;51.360;12.354;2023-03-11T14:06:45;5.30;99.90
38910;DHT22;24676;51.360;12.354;2023-03-11T14:09:29;5.30;99.90
38910;DHT22;24676;51.360;12.354;2023-03-11T14:12:14;5.10;95.50
38910;DHT22;24676;51.360;12.354;2023-03-11T14:15:03;4.90;99.20
38910;DHT22;24676;51.360;12.354;2023-03-11T14:17:50;4.90;95.50
38910;DHT22;24676;51.360;12.354;2023-03-11T14:20:34;4.90;98.80
38910;DHT22;24676;51.360;12.354;2023-03-11T14:23:19;4.80;97.30
38910;DHT22;24676;51.360;12.354;2023-03-11T14:26:30;4.70;99.30
38910;DHT22;24676;51.360;12.354;2023-03-11T14:29:18;4.60;99.90
38910;DHT22;24676;51.360;12.354;2023-03-11T14:32:22;4.70;99.90
38910;DHT22;24676;51.360;12.354;2023-03-11T14:35:20;4.90;99.60
38910;DHT22;24676;51.360;12.354;2023-03-11T14:38:17;5.10;97.20
38910;DHT22;24676;51.360;12.354;2023-03-11T14:41:03;5.40;97.80
38910;DHT22;24676;51.360;12.354;2023-03-11T14:43:48;5.70;98.40
38910;DHT22;24676;51.360;12.354;2023-03-11T14:46:34;5.80;89.30
38910;DHT22;24676;51.360;12.354;2023-03-11T14:49:19;5.80;86.30
38910;DHT22;24676;51.360;12.354;2023-03-11T14:52:07;5.80;86.20
38910;DHT22;24676;51.360;12.354;2023-03-11T14:54:51;5.80;84.50
38910;DHT22;24676;51.360;12.354;2023-03-11T14:57:38;5.80;89.20
38910;DHT22;24676;51.360;12.354;2023-03-11T15:00:32;5.80;84.70
38910;DHT22;24676;51.360;12.354;2023-03-11T15:03:22;5.70;83.40
38910;DHT22;24676;51.360;12.354;2023-03-11T15:06:12;5.40;83.90
38910;DHT22;24676;51.360;12.354;2023-03-11T15:09:00;5.20;85.50
38910;DHT22;24676;51.360;12.354;2023-03-11T15:11:46;5.00;91.10
38910;DHT22;24676;51.360;12.354;2023-03-11T15:19:59;4.70;91.50
38910;DHT22;24676;51.360;12.354;2023-03-11T15:22:43;4.60;91.80
38910;DHT22;24676;51.360;12.354;2023-03-11T15:25:29;4.50;90.50
38910;DHT22;24676;51.360;12.354;2023-03-11T15:31:15;4.30;91.00
38910;DHT22;24676;51.360;12.354;2023-03-11T15:36:54;4.00;97.30
38910;DHT22;24676;51.360;12.354;2023-03-11T15:39:39;3.90;99.90
38910;DHT22;24676;51.360;12.354;2023-03-11T15:42:29;3.80;99.90
38910;DHT22;24676;51.360;12.354;2023-03-11T15:45:17;3.70;98.50
38910;DHT22;24676;51.360;12.354;2023-03-11T15:48:01;3.60;99.50
38910;DHT22;24676;51.360;12.354;2023-03-11T15:50:49;3.60;99.90
38910;DHT22;24676;51.360;12.354;2023-03-11T15:53:34;3.60;99.90
38910;DHT22;24676;51.360;12.354;2023-03-11T15:56:21;3.60;99.90
38910;DHT22;24676;51.360;12.354;2023-03-11T15:59:06;3.60;99.90
38910;DHT22;24676;51.360;12.354;2023-03-11T16:01:50;3.60;99.90
38910;DHT22;24676;51.360;12.354;2023-03-11T16:04:34;3.60;99.90
38910;DHT22;24676;51.360;12.354;2023-03-11T16:07:18;3.50;99.90
38910;DHT22;24676;51.360;12.354;2023-03-11T16:10:03;3.40;99.90
38910;DHT22;24676;51.360;12.354;2023-03-11T16:12:47;3.30;99.90
38910;DHT22;24676;51.360;12.354;2023-03-11T16:15:33;3.20;99.90
38910;DHT22;24676;51.360;12.354;2023-03-11T16:18:17;3.10;99.90
38910;DHT22;24676;51.360;12.354;2023-03-11T16:21:02;3.00;99.90
38910;DHT22;24676;51.360;12.354;2023-03-11T16:23:51;2.80;99.90
38910;DHT22;24676;51.360;12.354;2023-03-11T16:26:35;2.70;99.90
38910;DHT22;24676;51.360;12.354;2023-03-11T16:29:20;2.60;99.90
38910;DHT22;24676;51.360;12.354;2023-03-11T16:32:06;2.50;99.90
38910;DHT22;24676;51.360;12.354;2023-03-11T16:34:51;2.50;99.90
38910;DHT22;24676;51.360;12.354;2023-03-11T16:37:36;2.40;99.90
38910;DHT22;24676;51.360;12.354;2023-03-11T16:40:27;2.40;99.90
38910;DHT22;24676;51.360;12.354;2023-03-11T16:43:12;2.30;99.90
38910;DHT22;24676;51.360;12.354;2023-03-11T16:45:59;2.20;99.90
38910;DHT22;24676;51.360;12.354;2023-03-11T16:48:43;2.10;99.90
38910;DHT22;24676;51.360;12.354;2023-03-11T16:51:28;1.90;99.90
38910;DHT22;24676;51.360;12.354;2023-03-11T16:54:12;1.90;99.90
38910;DHT22;24676;51.360;12.354;2023-03-11T16:56:56;1.80;99.90
38910;DHT22;24676;51.360;12.354;2023-03-11T16:59:40;1.70;99.90
38910;DHT22;24676;51.360;12.354;2023-03-11T17:02:24;1.60;99.90
38910;DHT22;24676;51.360;12.354;2023-03-11T17:05:09;1.50;99.90
38910;DHT22;24676;51.360;12.354;2023-03-11T17:07:55;1.30;99.90
38910;DHT22;24676;51.360;12.354;2023-03-11T17:10:44;1.20;99.90
38910;DHT22;24676;51.360;12.354;2023-03-11T17:13:28;1.00;99.90
38910;DHT22;24676;51.360;12.354;2023-03-11T17:16:13;0.90;99.90
38910;DHT22;24676;51.360;12.354;2023-03-11T17:19:00;0.80;99.90
38910;DHT22;24676;51.360;12.354;2023-03-11T17:21:46;0.80;99.90
38910;DHT22;24676;51.360;12.354;2023-03-11T17:24:30;0.70;99.90
38910;DHT22;24676;51.360;12.354;2023-03-11T17:27:15;0.60;99.90
38910;DHT22;24676;51.360;12.354;2023-03-11T17:30:00;0.50;99.90
38910;DHT22;24676;51.360;12.354;2023-03-11T17:32:45;0.40;99.90
38910;DHT22;24676;51.360;12.354;2023-03-11T17:35:29;0.40;99.90
38910;DHT22;24676;51.360;12.354;2023-03-11T17:38:14;0.30;99.90
38910;DHT22;24676;51.360;12.354;2023-03-11T17:40:58;0.20;99.90
38910;DHT22;24676;51.360;12.354;2023-03-11T17:43:43;0.20;99.90
38910;DHT22;24676;51.360;12.354;2023-03-11T17:46:28;0.10;99.90
38910;DHT22;24676;51.360;12.354;2023-03-11T17:49:13;0.10;99.90
38910;DHT22;24676;51.360;12.354;2023-03-11T17:51:58;0.00;99.90
38910;DHT22;24676;51.360;12.354;2023-03-11T17:54:43;-0.10;99.90
38910;DHT22;24676;51.360;12.354;2023-03-11T17:57:27;-0.20;99.90
38910;DHT22;24676;51.360;12.354;2023-03-11T18:00:13;-0.30;99.90
38910;DHT22;24676;51.360;12.354;2023-03-11T18:02:58;-0.30;99.90
38910;DHT22;24676;51.360;12.354;2023-03-11T18:05:56;-0.40;99.90
38910;DHT22;24676;51.360;12.354;2023-03-11T18:08:42;-0.50;99.90
38910;DHT22;24676;51.360;12.354;2023-03-11T18:11:26;-0.50;99.90
38910;DHT22;24676;51.360;12.354;2023-03-11T18:14:11;-0.60;99.90
38910;DHT22;24676;51.360;12.354;2023-03-11T18:16:55;-0.60;99.90
38910;DHT22;24676;51.360;12.354;2023-03-11T18:19:39;-0.70;99.90
38910;DHT22;24676;51.360;12.354;2023-03-11T18:22:24;-0.80;99.90
38910;DHT22;24676;51.360;12.354;2023-03-11T18:25:08;-0.80;99.90
38910;DHT22;24676;51.360;12.354;2023-03-11T18:27:52;-0.90;99.90
38910;DHT22;24676;51.360;12.354;2023-03-11T18:30:37;-0.90;99.90
38910;DHT22;24676;51.360;12.354;2023-03-11T18:33:23;-1.00;99.90
38910;DHT22;24676;51.360;12.354;2023-03-11T18:38:58;-1.10;99.90
38910;DHT22;24676;51.360;12.354;2023-03-11T18:41:43;-1.10;99.90
38910;DHT22;24676;51.360;12.354;2023-03-11T18:44:27;-1.20;99.90
38910;DHT22;24676;51.360;12.354;2023-03-11T18:47:11;-1.20;99.90
38910;DHT22;24676;51.360;12.354;2023-03-11T18:49:55;-1.30;99.90
38910;DHT22;24676;51.360;12.354;2023-03-11T18:52:39;-1.30;99.90
38910;DHT22;24676;51.360;12.354;2023-03-11T18:55:24;-1.40;99.90
38910;DHT22;24676;51.360;12.354;2023-03-11T18:58:08;-1.40;99.90
38910;DHT22;24676;51.360;12.354;2023-03-11T19:00:52;-1.40;99.90
38910;DHT22;24676;51.360;12.354;2023-03-11T19:03:37;-1.50;99.90
38910;DHT22;24676;51.360;12.354;2023-03-11T19:06:22;-1.50;99.90
38910;DHT22;24676;51.360;12.354;2023-03-11T19:09:07;-1.50;99.90